sensor_id;sensor_type;location;lat;lon;timestamp;pressure;altitude;pressure_sealevel;temperature;humidity
21574;BME280;10948;48.706;9.258;2023-11-19T00:00:04;97749.56;;;8.39;100.00
21574;BME280;10948;48.706;9.258;2023-11-19T00:02:31;97747.59;;;8.44;100.00
21574;BME280;10948;48.706;9.258;2023-11-19T00:04:57;97746.97;;;8.39;100.00
21574;BME280;10948;48.706;9.258;2023-11-19T00:07:23;97745.06;;;8.43;100.00
21574;BME280;10948;48.706;9.258;2023-11-19T00:09:48;97746.97;;;8.39;100.00
21574;BME280;10948;48.706;9.258;2023-11-19T00:12:14;97752.59;;;8.47;100.00
21574;BME280;10948;48.706;9.258;2023-11-19T00:14:39;97745.13;;;8.58;100.00
21574;BME280;10948;48.706;9.258;2023-11-19T00:17:04;97735.19;;;8.49;100.00
21574;BME280;10948;48.706;9.258;2023-11-19T00:19:30;97721.31;;;8.50;100.00
21574;BME280;10948;48.706;9.258;2023-11-19T00:21:55;97713.00;;;8.61;100.00
21574;BME280;10948;48.706;9.258;2023-11-19T00:24:20;97719.31;;;8.55;100.00
21574;BME280;10948;48.706;9.258;2023-11-19T00:26:45;97704.34;;;8.60;100.00
21574;BME280;10948;48.706;9.258;2023-11-19T00:29:11;97708.56;;;8.63;100.00
21574;BME280;10948;48.706;9.258;2023-11-19T00:31:38;97703.63;;;8.58;100.00
21574;BME280;10948;48.706;9.258;2023-11-19T00:34:04;97706.78;;;8.63;100.00
21574;BME280;10948;48.706;9.258;2023-11-19T00:36:31;97711.81;;;8.66;100.00
21574;BME280;10948;48.706;9.258;2023-11-19T00:38:56;97707.97;;;8.73;100.00
21574;BME280;10948;48.706;9.258;2023-11-19T00:41:21;97706.31;;;8.72;100.00
21574;BME280;10948;48.706;9.258;2023-11-19T00:43:47;97697.63;;;8.89;100.00
21574;BME280;10948;48.706;9.258;2023-11-19T00:46:13;97701.94;;;8.88;100.00
21574;BME280;10948;48.706;9.258;2023-11-19T00:48:41;97694.91;;;8.90;100.00
21574;BME280;10948;48.706;9.258;2023-11-19T00:51:06;97678.13;;;8.97;100.00
21574;BME280;10948;48.706;9.258;2023-11-19T00:53:31;97687.06;;;9.07;100.00
21574;BME280;10948;48.706;9.258;2023-11-19T00:56:00;97674.81;;;9.09;100.00
21574;BME280;10948;48.706;9.258;2023-11-19T00:58:25;97673.16;;;9.08;100.00
21574;BME280;10948;48.706;9.258;2023-11-19T01:00:50;97666.63;;;9.17;100.00
21574;BME280;10948;48.706;9.258;2023-11-19T01:03:16;97664.09;;;9.15;100.00
21574;BME280;10948;48.706;9.258;2023-11-19T01:05:41;97671.31;;;9.10;100.00
21574;BME280;10948;48.706;9.258;2023-11-19T01:08:06;97663.94;;;9.18;100.00
21574;BME280;10948;48.706;9.258;2023-11-19T01:10:31;97660.41;;;9.19;100.00
21574;BME280;10948;48.706;9.258;2023-11-19T01:12:57;97656.72;;;9.23;100.00
21574;BME280;10948;48.706;9.258;2023-11-19T01:15:22;97645.84;;;9.17;100.00
21574;BME280;10948;48.706;9.258;2023-11-19T01:17:48;97652.78;;;9.16;100.00
21574;BME280;10948;48.706;9.258;2023-11-19T01:20:13;97646.31;;;9.23;100.00
21574;BME280;10948;48.706;9.258;2023-11-19T01:22:39;97646.50;;;9.20;100.00
21574;BME280;10948;48.706;9.258;2023-11-19T01:25:04;97649.50;;;9.28;100.00
21574;BME280;10948;48.706;9.258;2023-11-19T01:27:30;97649.84;;;9.22;100.00
21574;BME280;10948;48.706;9.258;2023-11-19T01:29:55;97640.91;;;9.28;100.00
21574;BME280;10948;48.706;9.258;2023-11-19T01:32:21;97634.25;;;9.38;100.00
21574;BME280;10948;48.706;9.258;2023-11-19T01:34:46;97626.72;;;9.33;100.00
21574;BME280;10948;48.706;9.258;2023-11-19T01:37:11;97626.63;;;9.35;100.00
21574;BME280;10948;48.706;9.258;2023-11-19T01:39:39;97626.72;;;9.33;100.00
21574;BME280;10948;48.706;9.258;2023-11-19T01:42:04;97624.50;;;9.41;100.00
21574;BME280;10948;48.706;9.258;2023-11-19T01:44:29;97616.06;;;9.38;100.00
21574;BME280;10948;48.706;9.258;2023-11-19T01:46:54;97620.16;;;9.42;100.00
21574;BME280;10948;48.706;9.258;2023-11-19T01:49:20;97616.91;;;9.38;100.00
21574;BME280;10948;48.706;9.258;2023-11-19T01:51:45;97630.19;;;9.48;100.00
21574;BME280;10948;48.706;9.258;2023-11-19T01:54:12;97627.69;;;9.46;100.00
21574;BME280;10948;48.706;9.258;2023-11-19T01:56:38;97629.19;;;9.50;100.00
21574;BME280;10948;48.706;9.258;2023-11-19T01:59:05;97620.81;;;9.45;100.00
21574;BME280;10948;48.706;9.258;2023-11-19T02:01:32;97629.34;;;9.47;100.00
21574;BME280;10948;48.706;9.258;2023-11-19T02:03:59;97620.34;;;9.53;100.00
21574;BME280;10948;48.706;9.258;2023-11-19T02:06:25;97621.41;;;9.50;100.00
21574;BME280;10948;48.706;9.258;2023-11-19T02:08:50;97614.44;;;9.51;100.00
21574;BME280;10948;48.706;9.258;2023-11-19T02:11:16;97608.22;;;9.53;100.00
21574;BME280;10948;48.706;9.258;2023-11-19T02:13:42;97609.16;;;9.52;100.00
21574;BME280;10948;48.706;9.258;2023-11-19T02:16:09;97609.97;;;9.53;100.00
21574;BME280;10948;48.706;9.258;2023-11-19T02:18:36;97608.88;;;9.57;100.00
21574;BME280;10948;48.706;9.258;2023-11-19T02:21:01;97614.25;;;9.54;100.00
21574;BME280;10948;48.706;9.258;2023-11-19T02:23:27;97605.53;;;9.55;100.00
21574;BME280;10948;48.706;9.258;2023-11-19T02:28:38;97600.34;;;9.55;100.00
21574;BME280;10948;48.706;9.258;2023-11-19T02:31:05;97587.25;;;9.56;100.00
21574;BME280;10948;48.706;9.258;2023-11-19T02:33:31;97584.84;;;9.53;100.00
21574;BME280;10948;48.706;9.258;2023-11-19T02:35:56;97588.28;;;9.54;100.00
21574;BME280;10948;48.706;9.258;2023-11-19T02:38:22;97592.72;;;9.52;100.00
21574;BME280;10948;48.706;9.258;2023-11-19T02:40:47;97592.28;;;9.59;100.00
21574;BME280;10948;48.706;9.258;2023-11-19T02:43:13;97587.19;;;9.72;100.00
21574;BME280;10948;48.706;9.258;2023-11-19T02:45:38;97578.00;;;9.66;100.00
21574;BME280;10948;48.706;9.258;2023-11-19T02:48:03;97592.00;;;9.64;100.00
21574;BME280;10948;48.706;9.258;2023-11-19T02:50:31;97592.09;;;9.62;100.00
21574;BME280;10948;48.706;9.258;2023-11-19T02:52:56;97595.81;;;9.58;100.00
21574;BME280;10948;48.706;9.258;2023-11-19T02:55:22;97603.97;;;9.66;100.00
21574;BME280;10948;48.706;9.258;2023-11-19T02:57:48;97593.75;;;9.63;100.00
21574;BME280;10948;48.706;9.258;2023-11-19T03:00:15;97595.59;;;9.61;100.00
21574;BME280;10948;48.706;9.258;2023-11-19T03:02:41;97598.94;;;9.63;100.00
21574;BME280;10948;48.706;9.258;2023-11-19T03:05:16;97586.16;;;9.74;100.00
21574;BME280;10948;48.706;9.258;2023-11-19T03:07:42;97583.56;;;9.74;100.00
21574;BME280;10948;48.706;9.258;2023-11-19T03:10:08;97594.53;;;9.79;100.00
21574;BME280;10948;48.706;9.258;2023-11-19T03:12:34;97593.81;;;9.91;100.00
21574;BME280;10948;48.706;9.258;2023-11-19T03:14:59;97589.91;;;9.98;100.00
21574;BME280;10948;48.706;9.258;2023-11-19T03:17:24;97595.28;;;9.95;100.00
21574;BME280;10948;48.706;9.258;2023-11-19T03:19:50;97600.09;;;10.01;100.00
21574;BME280;10948;48.706;9.258;2023-11-19T03:22:15;97608.50;;;10.06;100.00
21574;BME280;10948;48.706;9.258;2023-11-19T03:24:40;97602.72;;;10.15;100.00
21574;BME280;10948;48.706;9.258;2023-11-19T03:27:06;97599.69;;;10.23;100.00
21574;BME280;10948;48.706;9.258;2023-11-19T03:29:31;97610.00;;;10.24;100.00
21574;BME280;10948;48.706;9.258;2023-11-19T03:31:56;97603.84;;;10.25;100.00
21574;BME280;10948;48.706;9.258;2023-11-19T03:34:22;97607.09;;;10.29;100.00
21574;BME280;10948;48.706;9.258;2023-11-19T03:36:47;97603.66;;;10.28;100.00
21574;BME280;10948;48.706;9.258;2023-11-19T03:39:12;97612.03;;;10.33;100.00
21574;BME280;10948;48.706;9.258;2023-11-19T03:41:37;97603.66;;;10.28;100.00
21574;BME280;10948;48.706;9.258;2023-11-19T03:44:02;97599.75;;;10.35;100.00
21574;BME280;10948;48.706;9.258;2023-11-19T03:46:28;97591.56;;;10.41;100.00
21574;BME280;10948;48.706;9.258;2023-11-19T03:48:55;97589.25;;;10.37;100.00
21574;BME280;10948;48.706;9.258;2023-11-19T03:51:20;97577.75;;;10.41;100.00
21574;BME280;10948;48.706;9.258;2023-11-19T03:53:45;97589.53;;;10.32;100.00
21574;BME280;10948;48.706;9.258;2023-11-19T03:56:11;97590.47;;;10.31;100.00
21574;BME280;10948;48.706;9.258;2023-11-19T03:58:37;97591.50;;;10.29;100.00
21574;BME280;10948;48.706;9.258;2023-11-19T04:01:03;97599.56;;;10.38;100.00
21574;BME280;10948;48.706;9.258;2023-11-19T04:03:29;97590.19;;;10.36;100.00
21574;BME280;10948;48.706;9.258;2023-11-19T04:05:54;97582.09;;;10.40;100.00
21574;BME280;10948;48.706;9.258;2023-11-19T04:08:19;97573.75;;;10.35;100.00
21574;BME280;10948;48.706;9.258;2023-11-19T04:10:44;97575.41;;;10.36;100.00
21574;BME280;10948;48.706;9.258;2023-11-19T04:13:10;97569.13;;;10.26;100.00
21574;BME280;10948;48.706;9.258;2023-11-19T04:15:35;97574.88;;;10.31;100.00
21574;BME280;10948;48.706;9.258;2023-11-19T04:18:00;97584.34;;;10.32;100.00
21574;BME280;10948;48.706;9.258;2023-11-19T04:20:26;97583.06;;;10.25;100.00
21574;BME280;10948;48.706;9.258;2023-11-19T04:22:51;97588.41;;;10.36;100.00
21574;BME280;10948;48.706;9.258;2023-11-19T04:25:16;97586.31;;;10.29;100.00
21574;BME280;10948;48.706;9.258;2023-11-19T04:27:41;97590.28;;;10.34;100.00
21574;BME280;10948;48.706;9.258;2023-11-19T04:30:07;97593.34;;;10.41;100.00
21574;BME280;10948;48.706;9.258;2023-11-19T04:32:32;97595.66;;;10.45;100.00
21574;BME280;10948;48.706;9.258;2023-11-19T04:34:58;97586.81;;;10.62;100.00
21574;BME280;10948;48.706;9.258;2023-11-19T04:37:23;97592.13;;;10.46;100.00
21574;BME280;10948;48.706;9.258;2023-11-19T04:39:48;97584.66;;;10.54;100.00
21574;BME280;10948;48.706;9.258;2023-11-19T04:42:13;97593.03;;;10.59;100.00
21574;BME280;10948;48.706;9.258;2023-11-19T04:44:42;97593.41;;;10.53;100.00
21574;BME280;10948;48.706;9.258;2023-11-19T04:47:07;97594.16;;;10.55;100.00
21574;BME280;10948;48.706;9.258;2023-11-19T04:49:33;97594.53;;;10.63;100.00
21574;BME280;10948;48.706;9.258;2023-11-19T04:51:58;97595.81;;;10.70;100.00
21574;BME280;10948;48.706;9.258;2023-11-19T04:54:24;97591.75;;;10.52;100.00
21574;BME280;10948;48.706;9.258;2023-11-19T04:56:49;97586.72;;;10.63;100.00
21574;BME280;10948;48.706;9.258;2023-11-19T04:59:15;97588.00;;;10.70;100.00
21574;BME280;10948;48.706;9.258;2023-11-19T05:01:40;97586.81;;;10.62;100.00
21574;BME280;10948;48.706;9.258;2023-11-19T05:04:07;97591.88;;;10.77;100.00
21574;BME280;10948;48.706;9.258;2023-11-19T05:06:32;97588.72;;;10.72;100.00
21574;BME280;10948;48.706;9.258;2023-11-19T05:08:59;97591.13;;;10.75;100.00
21574;BME280;10948;48.706;9.258;2023-11-19T05:11:35;97582.19;;;10.79;100.00
21574;BME280;10948;48.706;9.258;2023-11-19T05:14:02;97581.47;;;10.77;100.00
21574;BME280;10948;48.706;9.258;2023-11-19T05:16:28;97571.31;;;10.87;100.00
21574;BME280;10948;48.706;9.258;2023-11-19T05:18:54;97574.31;;;10.81;100.00
21574;BME280;10948;48.706;9.258;2023-11-19T05:21:19;97572.75;;;10.90;100.00
21574;BME280;10948;48.706;9.258;2023-11-19T05:23:44;97574.72;;;10.87;100.00
21574;BME280;10948;48.706;9.258;2023-11-19T05:26:09;97569.59;;;10.85;100.00
21574;BME280;10948;48.706;9.258;2023-11-19T05:28:37;97572.59;;;10.93;100.00
21574;BME280;10948;48.706;9.258;2023-11-19T05:31:02;97579.25;;;10.97;100.00
21574;BME280;10948;48.706;9.258;2023-11-19T05:33:28;97588.22;;;11.06;100.00
21574;BME280;10948;48.706;9.258;2023-11-19T05:35:53;97590.03;;;10.91;100.00
21574;BME280;10948;48.706;9.258;2023-11-19T05:38:18;97596.44;;;11.00;100.00
21574;BME280;10948;48.706;9.258;2023-11-19T05:40:43;97604.00;;;10.90;100.00
21574;BME280;10948;48.706;9.258;2023-11-19T05:43:09;97600.13;;;11.10;100.00
21574;BME280;10948;48.706;9.258;2023-11-19T05:45:34;97595.31;;;11.04;100.00
21574;BME280;10948;48.706;9.258;2023-11-19T05:47:59;97590.94;;;11.04;100.00
21574;BME280;10948;48.706;9.258;2023-11-19T05:50:24;97597.03;;;10.91;100.00
21574;BME280;10948;48.706;9.258;2023-11-19T05:52:50;97597.56;;;10.96;100.00
21574;BME280;10948;48.706;9.258;2023-11-19T05:55:15;97601.47;;;11.03;100.00
21574;BME280;10948;48.706;9.258;2023-11-19T05:57:40;97608.63;;;10.99;100.00
21574;BME280;10948;48.706;9.258;2023-11-19T06:00:06;97607.78;;;10.99;100.00
21574;BME280;10948;48.706;9.258;2023-11-19T06:02:34;97608.34;;;11.04;100.00
21574;BME280;10948;48.706;9.258;2023-11-19T06:05:00;97611.13;;;11.01;100.00
21574;BME280;10948;48.706;9.258;2023-11-19T06:07:26;97601.81;;;11.11;100.00
21574;BME280;10948;48.706;9.258;2023-11-19T06:09:51;97616.31;;;11.01;100.00
21574;BME280;10948;48.706;9.258;2023-11-19T06:12:17;97616.88;;;11.06;100.00
21574;BME280;10948;48.706;9.258;2023-11-19T06:14:42;97610.19;;;11.02;100.00
21574;BME280;10948;48.706;9.258;2023-11-19T06:17:07;97600.13;;;11.10;100.00
21574;BME280;10948;48.706;9.258;2023-11-19T06:19:33;97598.66;;;11.06;100.00
21574;BME280;10948;48.706;9.258;2023-11-19T06:21:59;97602.53;;;11.13;100.00
21574;BME280;10948;48.706;9.258;2023-11-19T06:24:24;97599.19;;;11.11;100.00
21574;BME280;10948;48.706;9.258;2023-11-19T06:26:49;97601.34;;;11.04;100.00
21574;BME280;10948;48.706;9.258;2023-11-19T06:29:14;97603.66;;;11.09;100.00
21574;BME280;10948;48.706;9.258;2023-11-19T06:31:43;97603.66;;;11.09;100.00
21574;BME280;10948;48.706;9.258;2023-11-19T06:34:09;97604.25;;;11.00;100.00
21574;BME280;10948;48.706;9.258;2023-11-19T06:36:34;97610.34;;;11.13;100.00
21574;BME280;10948;48.706;9.258;2023-11-19T06:39:00;97600.88;;;11.12;100.00
21574;BME280;10948;48.706;9.258;2023-11-19T06:41:25;97597.88;;;11.18;100.00
21574;BME280;10948;48.706;9.258;2023-11-19T06:43:50;97608.28;;;11.18;100.00
21574;BME280;10948;48.706;9.258;2023-11-19T06:46:17;97608.06;;;11.21;100.00
21574;BME280;10948;48.706;9.258;2023-11-19T06:48:42;97608.28;;;11.18;100.00
21574;BME280;10948;48.706;9.258;2023-11-19T06:51:09;97618.06;;;11.14;100.00
21574;BME280;10948;48.706;9.258;2023-11-19T06:53:34;97611.94;;;11.28;100.00
21574;BME280;10948;48.706;9.258;2023-11-19T06:55:59;97623.50;;;11.24;100.00
21574;BME280;10948;48.706;9.258;2023-11-19T06:58:25;97624.78;;;11.31;100.00
21574;BME280;10948;48.706;9.258;2023-11-19T07:00:51;97619.28;;;11.35;100.00
21574;BME280;10948;48.706;9.258;2023-11-19T07:03:16;97625.91;;;11.27;100.00
21574;BME280;10948;48.706;9.258;2023-11-19T07:05:41;97637.09;;;11.41;100.00
21574;BME280;10948;48.706;9.258;2023-11-19T07:08:06;97632.09;;;11.38;100.00
21574;BME280;10948;48.706;9.258;2023-11-19T07:10:35;97629.59;;;11.37;100.00
21574;BME280;10948;48.706;9.258;2023-11-19T07:13:00;97632.72;;;11.42;100.00
21574;BME280;10948;48.706;9.258;2023-11-19T07:15:25;97639.41;;;11.46;100.00
21574;BME280;10948;48.706;9.258;2023-11-19T07:17:50;97628.38;;;11.55;100.00
21574;BME280;10948;48.706;9.258;2023-11-19T07:20:16;97632.84;;;11.53;100.00
21574;BME280;10948;48.706;9.258;2023-11-19T07:22:44;97635.28;;;11.56;100.00
21574;BME280;10948;48.706;9.258;2023-11-19T07:25:13;97635.38;;;11.54;100.00
21574;BME280;10948;48.706;9.258;2023-11-19T07:27:39;97635.72;;;11.62;100.00
21574;BME280;10948;48.706;9.258;2023-11-19T07:30:05;97636.09;;;11.56;100.00
21574;BME280;10948;48.706;9.258;2023-11-19T07:32:32;97647.19;;;11.60;100.00
21574;BME280;10948;48.706;9.258;2023-11-19T07:34:57;97643.28;;;11.53;100.00
21574;BME280;10948;48.706;9.258;2023-11-19T07:37:23;97634.19;;;11.46;100.00
21574;BME280;10948;48.706;9.258;2023-11-19T07:39:48;97643.84;;;11.58;100.00
21574;BME280;10948;48.706;9.258;2023-11-19T07:42:13;97656.53;;;11.50;100.00
21574;BME280;10948;48.706;9.258;2023-11-19T07:44:38;97653.72;;;11.53;100.00
21574;BME280;10948;48.706;9.258;2023-11-19T07:47:03;97659.00;;;11.51;100.00
21574;BME280;10948;48.706;9.258;2023-11-19T07:49:29;97661.19;;;11.45;100.00
21574;BME280;10948;48.706;9.258;2023-11-19T07:51:55;97653.91;;;11.50;100.00
21574;BME280;10948;48.706;9.258;2023-11-19T07:54:21;97644.75;;;11.57;100.00
21574;BME280;10948;48.706;9.258;2023-11-19T07:56:46;97644.00;;;11.55;100.00
21574;BME280;10948;48.706;9.258;2023-11-19T07:59:11;97644.94;;;11.54;100.00
21574;BME280;10948;48.706;9.258;2023-11-19T08:01:37;97652.59;;;11.57;100.00
21574;BME280;10948;48.706;9.258;2023-11-19T08:04:02;97665.44;;;11.60;100.00
21574;BME280;10948;48.706;9.258;2023-11-19T08:06:27;97658.19;;;11.51;100.00
21574;BME280;10948;48.706;9.258;2023-11-19T08:08:53;97656.66;;;11.61;100.00
21574;BME280;10948;48.706;9.258;2023-11-19T08:11:18;97633.22;;;11.61;100.00
21574;BME280;10948;48.706;9.258;2023-11-19T08:13:44;97639.69;;;11.68;100.00
21574;BME280;10948;48.706;9.258;2023-11-19T08:16:10;97645.66;;;11.70;100.00
21574;BME280;10948;48.706;9.258;2023-11-19T08:18:35;97643.69;;;11.73;100.00
21574;BME280;10948;48.706;9.258;2023-11-19T08:21:01;97644.53;;;11.86;100.00
21574;BME280;10948;48.706;9.258;2023-11-19T08:23:26;97640.47;;;12.07;100.00
21574;BME280;10948;48.706;9.258;2023-11-19T08:25:52;97636.81;;;12.10;100.00
21574;BME280;10948;48.706;9.258;2023-11-19T08:28:18;97639.44;;;12.10;100.00
21574;BME280;10948;48.706;9.258;2023-11-19T08:30:43;97634.09;;;12.11;100.00
21574;BME280;10948;48.706;9.258;2023-11-19T08:33:09;97634.00;;;12.13;100.00
21574;BME280;10948;48.706;9.258;2023-11-19T08:35:34;97639.94;;;12.27;100.00
21574;BME280;10948;48.706;9.258;2023-11-19T08:37:59;97635.28;;;13.40;100.00
21574;BME280;10948;48.706;9.258;2023-11-19T08:40:25;97640.41;;;15.73;100.00
21574;BME280;10948;48.706;9.258;2023-11-19T08:42:51;97635.22;;;20.57;100.00
21574;BME280;10948;48.706;9.258;2023-11-19T08:45:16;97656.94;;;16.05;100.00
21574;BME280;10948;48.706;9.258;2023-11-19T08:47:41;97661.59;;;14.96;100.00
21574;BME280;10948;48.706;9.258;2023-11-19T08:50:07;97663.28;;;16.23;100.00
21574;BME280;10948;48.706;9.258;2023-11-19T08:52:33;97653.91;;;15.15;100.00
21574;BME280;10948;48.706;9.258;2023-11-19T08:54:58;97652.84;;;13.73;100.00
21574;BME280;10948;48.706;9.258;2023-11-19T08:57:23;97656.38;;;13.61;100.00
21574;BME280;10948;48.706;9.258;2023-11-19T08:59:49;97659.16;;;13.47;100.00
21574;BME280;10948;48.706;9.258;2023-11-19T09:02:14;97657.28;;;13.72;100.00
21574;BME280;10948;48.706;9.258;2023-11-19T09:04:39;97655.91;;;14.58;100.00
21574;BME280;10948;48.706;9.258;2023-11-19T09:07:05;97652.66;;;13.76;100.00
21574;BME280;10948;48.706;9.258;2023-11-19T09:09:31;97654.03;;;16.79;100.00
21574;BME280;10948;48.706;9.258;2023-11-19T09:11:59;97654.91;;;16.89;100.00
21574;BME280;10948;48.706;9.258;2023-11-19T09:14:24;97655.97;;;16.26;100.00
21574;BME280;10948;48.706;9.258;2023-11-19T09:16:51;97658.75;;;14.77;100.00
21574;BME280;10948;48.706;9.258;2023-11-19T09:19:16;97662.72;;;14.15;100.00
21574;BME280;10948;48.706;9.258;2023-11-19T09:21:42;97658.00;;;14.20;100.00
21574;BME280;10948;48.706;9.258;2023-11-19T09:24:07;97665.41;;;14.48;100.00
21574;BME280;10948;48.706;9.258;2023-11-19T09:26:33;97664.81;;;14.33;100.00
21574;BME280;10948;48.706;9.258;2023-11-19T09:28:58;97661.34;;;14.22;100.00
21574;BME280;10948;48.706;9.258;2023-11-19T09:31:23;97661.59;;;16.01;100.00
21574;BME280;10948;48.706;9.258;2023-11-19T09:33:49;97673.84;;;14.51;100.00
21574;BME280;10948;48.706;9.258;2023-11-19T09:36:14;97680.03;;;14.28;100.00
21574;BME280;10948;48.706;9.258;2023-11-19T09:38:41;97681.00;;;14.49;100.00
21574;BME280;10948;48.706;9.258;2023-11-19T09:41:06;97680.59;;;15.31;100.00
21574;BME280;10948;48.706;9.258;2023-11-19T09:43:36;97683.16;;;14.66;100.00
21574;BME280;10948;48.706;9.258;2023-11-19T09:46:05;97669.13;;;19.49;100.00
21574;BME280;10948;48.706;9.258;2023-11-19T09:48:35;97667.88;;;16.81;100.00
21574;BME280;10948;48.706;9.258;2023-11-19T09:51:00;97683.84;;;15.12;100.00
21574;BME280;10948;48.706;9.258;2023-11-19T09:53:26;97672.94;;;19.81;100.00
21574;BME280;10948;48.706;9.258;2023-11-19T09:55:51;97667.94;;;19.78;91.08
21574;BME280;10948;48.706;9.258;2023-11-19T09:58:18;97666.19;;;19.52;88.17
21574;BME280;10948;48.706;9.258;2023-11-19T10:00:43;97673.47;;;16.97;100.00
21574;BME280;10948;48.706;9.258;2023-11-19T10:03:08;97664.78;;;17.83;100.00
21574;BME280;10948;48.706;9.258;2023-11-19T10:05:35;97669.22;;;17.73;100.00
21574;BME280;10948;48.706;9.258;2023-11-19T10:08:03;97668.81;;;17.87;100.00
21574;BME280;10948;48.706;9.258;2023-11-19T10:10:28;97673.81;;;19.72;92.88
21574;BME280;10948;48.706;9.258;2023-11-19T10:12:53;97660.88;;;18.80;93.62
21574;BME280;10948;48.706;9.258;2023-11-19T10:15:20;97655.91;;;17.55;100.00
21574;BME280;10948;48.706;9.258;2023-11-19T10:17:46;97654.63;;;16.92;100.00
21574;BME280;10948;48.706;9.258;2023-11-19T10:20:11;97641.28;;;18.83;100.00
21574;BME280;10948;48.706;9.258;2023-11-19T10:22:37;97645.75;;;19.36;93.79
21574;BME280;10948;48.706;9.258;2023-11-19T10:25:02;97651.00;;;19.09;93.39
21574;BME280;10948;48.706;9.258;2023-11-19T10:27:27;97649.34;;;20.40;86.39
21574;BME280;10948;48.706;9.258;2023-11-19T10:29:52;97659.56;;;18.57;92.29
21574;BME280;10948;48.706;9.258;2023-11-19T10:32:18;97656.69;;;17.27;100.00
21574;BME280;10948;48.706;9.258;2023-11-19T10:34:43;97646.00;;;16.71;100.00
21574;BME280;10948;48.706;9.258;2023-11-19T10:37:08;97659.56;;;16.76;100.00
21574;BME280;10948;48.706;9.258;2023-11-19T10:39:52;97660.22;;;16.98;100.00
21574;BME280;10948;48.706;9.258;2023-11-19T10:42:21;97656.69;;;19.59;97.49
21574;BME280;10948;48.706;9.258;2023-11-19T10:44:46;97649.72;;;21.12;84.35
21574;BME280;10948;48.706;9.258;2023-11-19T10:47:12;97641.66;;;20.29;85.75
21574;BME280;10948;48.706;9.258;2023-11-19T10:49:38;97641.22;;;20.42;81.52
21574;BME280;10948;48.706;9.258;2023-11-19T10:52:03;97643.59;;;21.04;81.64
21574;BME280;10948;48.706;9.258;2023-11-19T10:54:30;97640.50;;;21.24;80.27
21574;BME280;10948;48.706;9.258;2023-11-19T10:56:58;97636.16;;;20.48;80.26
21574;BME280;10948;48.706;9.258;2023-11-19T10:59:27;97640.94;;;19.49;87.55
21574;BME280;10948;48.706;9.258;2023-11-19T11:01:54;97636.31;;;19.51;84.61
21574;BME280;10948;48.706;9.258;2023-11-19T11:04:25;97625.19;;;18.49;91.54
21574;BME280;10948;48.706;9.258;2023-11-19T11:06:51;97621.41;;;19.15;91.02
21574;BME280;10948;48.706;9.258;2023-11-19T11:09:19;97624.06;;;21.05;82.29
21574;BME280;10948;48.706;9.258;2023-11-19T11:11:46;97619.56;;;20.13;80.78
21574;BME280;10948;48.706;9.258;2023-11-19T11:14:12;97634.38;;;20.31;80.18
21574;BME280;10948;48.706;9.258;2023-11-19T11:16:40;97630.50;;;20.00;80.50
21574;BME280;10948;48.706;9.258;2023-11-19T11:19:07;97633.66;;;20.21;80.38
21574;BME280;10948;48.706;9.258;2023-11-19T11:21:34;97628.72;;;19.66;80.75
21574;BME280;10948;48.706;9.258;2023-11-19T11:29:45;97620.50;;;18.24;89.74
21574;BME280;10948;48.706;9.258;2023-11-19T11:37:30;97627.31;;;17.22;95.73
21574;BME280;10948;48.706;9.258;2023-11-19T11:39:57;97617.97;;;16.99;96.46
21574;BME280;10948;48.706;9.258;2023-11-19T11:45:03;97628.41;;;16.62;97.52
21574;BME280;10948;48.706;9.258;2023-11-19T11:50:16;97613.09;;;16.86;96.60
21574;BME280;10948;48.706;9.258;2023-11-19T11:57:51;97614.81;;;19.46;79.38
21574;BME280;10948;48.706;9.258;2023-11-19T12:03:00;97612.63;;;20.37;76.13
21574;BME280;10948;48.706;9.258;2023-11-19T12:05:26;97624.53;;;19.01;79.43
21574;BME280;10948;48.706;9.258;2023-11-19T12:07:55;97626.91;;;18.31;83.11
21574;BME280;10948;48.706;9.258;2023-11-19T12:10:23;97623.56;;;19.64;77.72
21574;BME280;10948;48.706;9.258;2023-11-19T12:12:49;97618.47;;;18.91;78.86
21574;BME280;10948;48.706;9.258;2023-11-19T12:15:17;97608.63;;;20.33;75.85
21574;BME280;10948;48.706;9.258;2023-11-19T12:17:50;97611.56;;;19.52;76.34
21574;BME280;10948;48.706;9.258;2023-11-19T12:20:16;97601.22;;;18.33;80.55
21574;BME280;10948;48.706;9.258;2023-11-19T12:22:42;97605.38;;;17.61;83.86
21574;BME280;10948;48.706;9.258;2023-11-19T12:25:08;97598.03;;;17.55;84.87
21574;BME280;10948;48.706;9.258;2023-11-19T12:27:37;97604.34;;;17.24;83.30
21574;BME280;10948;48.706;9.258;2023-11-19T12:30:04;97599.38;;;17.59;82.67
21574;BME280;10948;48.706;9.258;2023-11-19T12:32:39;97591.47;;;17.21;84.62
21574;BME280;10948;48.706;9.258;2023-11-19T12:35:05;97587.16;;;17.20;86.09
21574;BME280;10948;48.706;9.258;2023-11-19T12:37:30;97575.72;;;18.24;82.42
21574;BME280;10948;48.706;9.258;2023-11-19T12:39:56;97574.56;;;17.90;80.43
21574;BME280;10948;48.706;9.258;2023-11-19T12:42:34;97573.63;;;17.53;83.90
21574;BME280;10948;48.706;9.258;2023-11-19T12:44:59;97579.34;;;18.23;82.42
21574;BME280;10948;48.706;9.258;2023-11-19T12:47:24;97575.91;;;19.48;75.55
21574;BME280;10948;48.706;9.258;2023-11-19T12:49:56;97575.53;;;17.99;79.69
21574;BME280;10948;48.706;9.258;2023-11-19T12:52:22;97575.88;;;17.58;83.48
21574;BME280;10948;48.706;9.258;2023-11-19T12:54:48;97567.53;;;19.53;75.03
21574;BME280;10948;48.706;9.258;2023-11-19T12:57:13;97563.16;;;19.26;74.83
21574;BME280;10948;48.706;9.258;2023-11-19T12:59:39;97566.25;;;18.41;78.32
21574;BME280;10948;48.706;9.258;2023-11-19T13:02:04;97562.03;;;18.57;78.87
21574;BME280;10948;48.706;9.258;2023-11-19T13:04:30;97556.00;;;19.36;77.01
21574;BME280;10948;48.706;9.258;2023-11-19T13:06:56;97554.69;;;19.23;76.13
21574;BME280;10948;48.706;9.258;2023-11-19T13:09:25;97556.41;;;19.14;73.85
21574;BME280;10948;48.706;9.258;2023-11-19T13:11:50;97552.09;;;18.69;74.76
21574;BME280;10948;48.706;9.258;2023-11-19T13:14:17;97560.31;;;18.66;75.24